sensor_id;sensor_type;location;lat;lon;timestamp;P1;durP1;ratioP1;P2;durP2;ratioP2
85121;SDS011;75480;52.260;20.916;2024-03-02T00:00:20;40.17;;;21.58;;
85121;SDS011;75480;52.260;20.916;2024-03-02T00:02:11;40.05;;;20.88;;
85121;SDS011;75480;52.260;20.916;2024-03-02T00:03:42;39.95;;;21.50;;
85121;SDS011;75480;52.260;20.916;2024-03-02T00:05:17;40.28;;;20.35;;
85121;SDS011;75480;52.260;20.916;2024-03-02T00:06:51;41.90;;;21.42;;
85121;SDS011;75480;52.260;20.916;2024-03-02T00:08:24;36.58;;;20.33;;
85121;SDS011;75480;52.260;20.916;2024-03-02T00:09:59;39.88;;;21.38;;
85121;SDS011;75480;52.260;20.916;2024-03-02T00:11:30;40.22;;;22.27;;
85121;SDS011;75480;52.260;20.916;2024-03-02T00:13:04;44.10;;;21.98;;
85121;SDS011;75480;52.260;20.916;2024-03-02T00:14:35;39.25;;;20.48;;
85121;SDS011;75480;52.260;20.916;2024-03-02T00:16:06;35.08;;;20.20;;
85121;SDS011;75480;52.260;20.916;2024-03-02T00:17:37;37.08;;;21.52;;
85121;SDS011;75480;52.260;20.916;2024-03-02T00:19:08;41.88;;;22.08;;
85121;SDS011;75480;52.260;20.916;2024-03-02T00:20:39;36.13;;;19.85;;
85121;SDS011;75480;52.260;20.916;2024-03-02T00:22:11;37.90;;;22.17;;
85121;SDS011;75480;52.260;20.916;2024-03-02T00:23:42;36.38;;;20.75;;
85121;SDS011;75480;52.260;20.916;2024-03-02T00:25:12;39.15;;;22.70;;
85121;SDS011;75480;52.260;20.916;2024-03-02T00:26:44;40.33;;;22.15;;
85121;SDS011;75480;52.260;20.916;2024-03-02T00:28:17;39.55;;;21.98;;
85121;SDS011;75480;52.260;20.916;2024-03-02T00:29:49;37.53;;;19.67;;
85121;SDS011;75480;52.260;20.916;2024-03-02T00:31:20;37.03;;;21.30;;
85121;SDS011;75480;52.260;20.916;2024-03-02T00:32:51;35.53;;;19.42;;
85121;SDS011;75480;52.260;20.916;2024-03-02T00:34:23;37.63;;;19.92;;
85121;SDS011;75480;52.260;20.916;2024-03-02T00:35:54;39.38;;;21.65;;
85121;SDS011;75480;52.260;20.916;2024-03-02T00:37:25;37.30;;;21.42;;
85121;SDS011;75480;52.260;20.916;2024-03-02T00:38:55;38.10;;;21.02;;
85121;SDS011;75480;52.260;20.916;2024-03-02T00:40:27;37.95;;;21.00;;
85121;SDS011;75480;52.260;20.916;2024-03-02T00:42:00;38.45;;;21.33;;
85121;SDS011;75480;52.260;20.916;2024-03-02T00:45:07;40.00;;;20.83;;
85121;SDS011;75480;52.260;20.916;2024-03-02T00:46:39;36.95;;;19.92;;
85121;SDS011;75480;52.260;20.916;2024-03-02T00:48:10;40.28;;;21.67;;
85121;SDS011;75480;52.260;20.916;2024-03-02T00:51:13;36.65;;;18.73;;
85121;SDS011;75480;52.260;20.916;2024-03-02T00:52:43;39.72;;;21.27;;
85121;SDS011;75480;52.260;20.916;2024-03-02T00:54:14;37.05;;;20.70;;
85121;SDS011;75480;52.260;20.916;2024-03-02T00:55:46;38.38;;;21.10;;
85121;SDS011;75480;52.260;20.916;2024-03-02T00:57:18;43.92;;;20.50;;
85121;SDS011;75480;52.260;20.916;2024-03-02T00:58:48;37.40;;;19.65;;
85121;SDS011;75480;52.260;20.916;2024-03-02T01:00:20;39.90;;;20.83;;
85121;SDS011;75480;52.260;20.916;2024-03-02T01:01:50;39.90;;;20.80;;
85121;SDS011;75480;52.260;20.916;2024-03-02T01:03:22;39.53;;;20.85;;
85121;SDS011;75480;52.260;20.916;2024-03-02T01:04:53;39.67;;;20.90;;
85121;SDS011;75480;52.260;20.916;2024-03-02T01:06:24;40.25;;;20.77;;
85121;SDS011;75480;52.260;20.916;2024-03-02T01:07:54;40.53;;;21.10;;
85121;SDS011;75480;52.260;20.916;2024-03-02T01:09:25;38.22;;;21.30;;
85121;SDS011;75480;52.260;20.916;2024-03-02T01:10:56;38.90;;;20.73;;
85121;SDS011;75480;52.260;20.916;2024-03-02T01:12:27;34.28;;;19.05;;
85121;SDS011;75480;52.260;20.916;2024-03-02T01:13:58;39.78;;;21.58;;
85121;SDS011;75480;52.260;20.916;2024-03-02T01:15:28;39.53;;;20.20;;
85121;SDS011;75480;52.260;20.916;2024-03-02T01:16:59;38.78;;;21.42;;
85121;SDS011;75480;52.260;20.916;2024-03-02T01:18:30;39.88;;;21.23;;
85121;SDS011;75480;52.260;20.916;2024-03-02T01:20:01;37.17;;;21.90;;
85121;SDS011;75480;52.260;20.916;2024-03-02T01:21:32;39.67;;;21.88;;
85121;SDS011;75480;52.260;20.916;2024-03-02T01:23:02;39.97;;;22.17;;
85121;SDS011;75480;52.260;20.916;2024-03-02T01:24:33;38.30;;;21.30;;
85121;SDS011;75480;52.260;20.916;2024-03-02T01:26:04;41.65;;;22.38;;
85121;SDS011;75480;52.260;20.916;2024-03-02T01:27:35;39.03;;;21.15;;
85121;SDS011;75480;52.260;20.916;2024-03-02T01:29:05;35.40;;;20.35;;
85121;SDS011;75480;52.260;20.916;2024-03-02T01:30:36;41.10;;;21.65;;
85121;SDS011;75480;52.260;20.916;2024-03-02T01:32:07;39.60;;;21.05;;
85121;SDS011;75480;52.260;20.916;2024-03-02T01:33:37;37.47;;;20.23;;
85121;SDS011;75480;52.260;20.916;2024-03-02T01:35:08;37.67;;;20.58;;
85121;SDS011;75480;52.260;20.916;2024-03-02T01:36:39;38.33;;;21.15;;
85121;SDS011;75480;52.260;20.916;2024-03-02T01:38:10;44.08;;;21.63;;
85121;SDS011;75480;52.260;20.916;2024-03-02T01:39:40;35.10;;;18.92;;
85121;SDS011;75480;52.260;20.916;2024-03-02T01:41:11;40.80;;;21.55;;
85121;SDS011;75480;52.260;20.916;2024-03-02T01:42:42;43.50;;;20.80;;
85121;SDS011;75480;52.260;20.916;2024-03-02T01:44:13;36.08;;;20.83;;
85121;SDS011;75480;52.260;20.916;2024-03-02T01:45:44;37.83;;;20.15;;
85121;SDS011;75480;52.260;20.916;2024-03-02T01:47:14;38.05;;;19.98;;
85121;SDS011;75480;52.260;20.916;2024-03-02T01:48:45;39.05;;;21.13;;
85121;SDS011;75480;52.260;20.916;2024-03-02T01:50:19;37.35;;;19.60;;
85121;SDS011;75480;52.260;20.916;2024-03-02T01:51:55;40.22;;;21.65;;
85121;SDS011;75480;52.260;20.916;2024-03-02T01:53:26;37.55;;;19.17;;
85121;SDS011;75480;52.260;20.916;2024-03-02T01:54:58;36.30;;;20.45;;
85121;SDS011;75480;52.260;20.916;2024-03-02T01:56:29;36.13;;;19.83;;
85121;SDS011;75480;52.260;20.916;2024-03-02T01:57:59;36.70;;;20.70;;
85121;SDS011;75480;52.260;20.916;2024-03-02T01:59:31;37.55;;;20.20;;
85121;SDS011;75480;52.260;20.916;2024-03-02T02:01:01;38.17;;;20.55;;
85121;SDS011;75480;52.260;20.916;2024-03-02T02:02:32;40.72;;;21.85;;
85121;SDS011;75480;52.260;20.916;2024-03-02T02:04:03;37.40;;;21.08;;
85121;SDS011;75480;52.260;20.916;2024-03-02T02:05:34;35.58;;;19.48;;
85121;SDS011;75480;52.260;20.916;2024-03-02T02:07:05;39.33;;;19.40;;
85121;SDS011;75480;52.260;20.916;2024-03-02T02:08:37;42.03;;;20.33;;
85121;SDS011;75480;52.260;20.916;2024-03-02T02:10:08;34.45;;;19.05;;
85121;SDS011;75480;52.260;20.916;2024-03-02T02:11:39;38.28;;;20.02;;
85121;SDS011;75480;52.260;20.916;2024-03-02T02:13:10;36.70;;;21.30;;
85121;SDS011;75480;52.260;20.916;2024-03-02T02:14:46;40.15;;;21.42;;
85121;SDS011;75480;52.260;20.916;2024-03-02T02:16:18;35.40;;;19.67;;
85121;SDS011;75480;52.260;20.916;2024-03-02T02:17:49;40.47;;;20.63;;
85121;SDS011;75480;52.260;20.916;2024-03-02T02:19:20;39.13;;;20.05;;
85121;SDS011;75480;52.260;20.916;2024-03-02T02:20:50;41.38;;;22.48;;
85121;SDS011;75480;52.260;20.916;2024-03-02T02:22:21;41.05;;;21.83;;
85121;SDS011;75480;52.260;20.916;2024-03-02T02:23:52;38.10;;;19.42;;
85121;SDS011;75480;52.260;20.916;2024-03-02T02:25:22;37.28;;;20.55;;
85121;SDS011;75480;52.260;20.916;2024-03-02T02:26:53;41.67;;;21.85;;
85121;SDS011;75480;52.260;20.916;2024-03-02T02:28:24;36.47;;;21.50;;
85121;SDS011;75480;52.260;20.916;2024-03-02T02:29:55;32.33;;;18.00;;
85121;SDS011;75480;52.260;20.916;2024-03-02T02:31:26;34.75;;;20.10;;
85121;SDS011;75480;52.260;20.916;2024-03-02T02:32:57;36.40;;;19.73;;
85121;SDS011;75480;52.260;20.916;2024-03-02T02:34:28;36.75;;;19.80;;
85121;SDS011;75480;52.260;20.916;2024-03-02T02:35:59;37.35;;;20.75;;
85121;SDS011;75480;52.260;20.916;2024-03-02T02:37:30;32.78;;;19.20;;
85121;SDS011;75480;52.260;20.916;2024-03-02T02:39:02;34.72;;;20.55;;
85121;SDS011;75480;52.260;20.916;2024-03-02T02:40:37;37.80;;;19.55;;
85121;SDS011;75480;52.260;20.916;2024-03-02T02:42:07;38.38;;;20.45;;
85121;SDS011;75480;52.260;20.916;2024-03-02T02:43:38;35.35;;;19.92;;
85121;SDS011;75480;52.260;20.916;2024-03-02T02:45:10;34.72;;;19.05;;
85121;SDS011;75480;52.260;20.916;2024-03-02T02:46:44;35.35;;;19.52;;
85121;SDS011;75480;52.260;20.916;2024-03-02T02:48:15;36.15;;;19.65;;
85121;SDS011;75480;52.260;20.916;2024-03-02T02:49:45;38.08;;;20.83;;
85121;SDS011;75480;52.260;20.916;2024-03-02T02:51:16;35.63;;;19.95;;
85121;SDS011;75480;52.260;20.916;2024-03-02T02:52:47;34.38;;;18.40;;
85121;SDS011;75480;52.260;20.916;2024-03-02T02:54:18;37.90;;;20.67;;
85121;SDS011;75480;52.260;20.916;2024-03-02T02:55:48;35.20;;;20.23;;
85121;SDS011;75480;52.260;20.916;2024-03-02T02:57:19;38.85;;;21.08;;
85121;SDS011;75480;52.260;20.916;2024-03-02T02:58:50;35.63;;;18.70;;
85121;SDS011;75480;52.260;20.916;2024-03-02T03:00:20;36.97;;;20.17;;
85121;SDS011;75480;52.260;20.916;2024-03-02T03:01:53;32.70;;;19.23;;
85121;SDS011;75480;52.260;20.916;2024-03-02T03:03:24;33.67;;;18.38;;
85121;SDS011;75480;52.260;20.916;2024-03-02T03:04:54;35.30;;;19.73;;
85121;SDS011;75480;52.260;20.916;2024-03-02T03:06:28;32.05;;;19.20;;
85121;SDS011;75480;52.260;20.916;2024-03-02T03:07:59;34.88;;;19.73;;
85121;SDS011;75480;52.260;20.916;2024-03-02T03:09:29;34.75;;;19.40;;
85121;SDS011;75480;52.260;20.916;2024-03-02T03:11:00;35.33;;;18.25;;
85121;SDS011;75480;52.260;20.916;2024-03-02T03:12:30;36.85;;;19.27;;
85121;SDS011;75480;52.260;20.916;2024-03-02T03:14:01;37.10;;;19.17;;
85121;SDS011;75480;52.260;20.916;2024-03-02T03:15:32;34.95;;;19.67;;
85121;SDS011;75480;52.260;20.916;2024-03-02T03:17:03;32.90;;;18.33;;
85121;SDS011;75480;52.260;20.916;2024-03-02T03:18:33;38.20;;;21.08;;
85121;SDS011;75480;52.260;20.916;2024-03-02T03:20:04;32.88;;;19.42;;
85121;SDS011;75480;52.260;20.916;2024-03-02T03:21:40;32.45;;;17.77;;
85121;SDS011;75480;52.260;20.916;2024-03-02T03:23:10;35.50;;;19.33;;
85121;SDS011;75480;52.260;20.916;2024-03-02T03:24:45;34.40;;;18.48;;
85121;SDS011;75480;52.260;20.916;2024-03-02T03:26:16;34.08;;;18.38;;
85121;SDS011;75480;52.260;20.916;2024-03-02T03:27:46;33.67;;;18.58;;
85121;SDS011;75480;52.260;20.916;2024-03-02T03:29:17;34.90;;;18.58;;
85121;SDS011;75480;52.260;20.916;2024-03-02T03:30:48;35.90;;;18.75;;
85121;SDS011;75480;52.260;20.916;2024-03-02T03:32:18;34.58;;;18.70;;
85121;SDS011;75480;52.260;20.916;2024-03-02T03:33:49;37.42;;;19.75;;
85121;SDS011;75480;52.260;20.916;2024-03-02T03:35:19;38.70;;;20.48;;
85121;SDS011;75480;52.260;20.916;2024-03-02T03:36:50;35.53;;;19.17;;
85121;SDS011;75480;52.260;20.916;2024-03-02T03:38:21;39.33;;;21.85;;
85121;SDS011;75480;52.260;20.916;2024-03-02T03:39:51;33.72;;;19.27;;
85121;SDS011;75480;52.260;20.916;2024-03-02T03:41:22;37.33;;;19.50;;
85121;SDS011;75480;52.260;20.916;2024-03-02T03:42:53;33.10;;;17.90;;
85121;SDS011;75480;52.260;20.916;2024-03-02T03:44:24;31.88;;;20.13;;
85121;SDS011;75480;52.260;20.916;2024-03-02T03:45:54;36.30;;;19.73;;
85121;SDS011;75480;52.260;20.916;2024-03-02T03:47:25;33.40;;;18.38;;
85121;SDS011;75480;52.260;20.916;2024-03-02T03:48:56;31.92;;;17.77;;
85121;SDS011;75480;52.260;20.916;2024-03-02T03:50:26;32.33;;;18.67;;
85121;SDS011;75480;52.260;20.916;2024-03-02T03:51:57;38.13;;;19.90;;
85121;SDS011;75480;52.260;20.916;2024-03-02T03:53:28;30.85;;;17.65;;
85121;SDS011;75480;52.260;20.916;2024-03-02T03:54:59;29.27;;;17.25;;
85121;SDS011;75480;52.260;20.916;2024-03-02T03:56:30;35.72;;;19.15;;
85121;SDS011;75480;52.260;20.916;2024-03-02T03:58:01;32.45;;;18.40;;
85121;SDS011;75480;52.260;20.916;2024-03-02T03:59:31;32.67;;;18.80;;
85121;SDS011;75480;52.260;20.916;2024-03-02T04:01:02;36.90;;;18.35;;
85121;SDS011;75480;52.260;20.916;2024-03-02T04:02:33;32.95;;;18.40;;
85121;SDS011;75480;52.260;20.916;2024-03-02T04:04:03;36.38;;;18.40;;
85121;SDS011;75480;52.260;20.916;2024-03-02T04:05:34;32.85;;;18.48;;
85121;SDS011;75480;52.260;20.916;2024-03-02T04:07:05;36.35;;;20.08;;
85121;SDS011;75480;52.260;20.916;2024-03-02T04:08:35;33.28;;;18.58;;
85121;SDS011;75480;52.260;20.916;2024-03-02T04:10:07;32.47;;;18.15;;
85121;SDS011;75480;52.260;20.916;2024-03-02T04:11:41;32.88;;;18.23;;
85121;SDS011;75480;52.260;20.916;2024-03-02T04:13:11;32.13;;;17.80;;
85121;SDS011;75480;52.260;20.916;2024-03-02T04:14:42;35.75;;;18.42;;
85121;SDS011;75480;52.260;20.916;2024-03-02T04:16:13;32.47;;;18.00;;
85121;SDS011;75480;52.260;20.916;2024-03-02T04:17:43;34.60;;;19.15;;
85121;SDS011;75480;52.260;20.916;2024-03-02T04:19:14;37.03;;;18.73;;
85121;SDS011;75480;52.260;20.916;2024-03-02T04:20:45;33.38;;;17.10;;
85121;SDS011;75480;52.260;20.916;2024-03-02T04:22:15;35.83;;;19.15;;
85121;SDS011;75480;52.260;20.916;2024-03-02T04:23:47;31.15;;;17.30;;
85121;SDS011;75480;52.260;20.916;2024-03-02T04:25:18;36.15;;;18.33;;
85121;SDS011;75480;52.260;20.916;2024-03-02T04:26:50;33.90;;;18.17;;
85121;SDS011;75480;52.260;20.916;2024-03-02T04:28:20;30.30;;;17.10;;
85121;SDS011;75480;52.260;20.916;2024-03-02T04:29:51;30.98;;;17.15;;
85121;SDS011;75480;52.260;20.916;2024-03-02T04:31:22;36.63;;;18.65;;
85121;SDS011;75480;52.260;20.916;2024-03-02T04:32:52;31.85;;;16.90;;
85121;SDS011;75480;52.260;20.916;2024-03-02T04:34:23;33.45;;;18.60;;
85121;SDS011;75480;52.260;20.916;2024-03-02T04:35:54;34.15;;;17.25;;
85121;SDS011;75480;52.260;20.916;2024-03-02T04:37:24;35.92;;;18.17;;
85121;SDS011;75480;52.260;20.916;2024-03-02T04:38:55;33.67;;;18.77;;
85121;SDS011;75480;52.260;20.916;2024-03-02T04:40:26;35.67;;;17.60;;
85121;SDS011;75480;52.260;20.916;2024-03-02T04:41:56;34.80;;;17.20;;
85121;SDS011;75480;52.260;20.916;2024-03-02T04:43:27;32.90;;;17.10;;
85121;SDS011;75480;52.260;20.916;2024-03-02T04:44:58;31.73;;;17.10;;
85121;SDS011;75480;52.260;20.916;2024-03-02T04:46:28;32.15;;;18.05;;
85121;SDS011;75480;52.260;20.916;2024-03-02T04:47:59;33.38;;;18.42;;
85121;SDS011;75480;52.260;20.916;2024-03-02T04:49:30;37.03;;;17.90;;
85121;SDS011;75480;52.260;20.916;2024-03-02T04:51:01;33.83;;;18.33;;
85121;SDS011;75480;52.260;20.916;2024-03-02T04:52:31;33.95;;;17.83;;
85121;SDS011;75480;52.260;20.916;2024-03-02T04:54:02;34.28;;;17.85;;
85121;SDS011;75480;52.260;20.916;2024-03-02T04:55:33;39.60;;;19.70;;
85121;SDS011;75480;52.260;20.916;2024-03-02T04:57:09;33.47;;;17.48;;
85121;SDS011;75480;52.260;20.916;2024-03-02T04:58:40;34.15;;;17.55;;
85121;SDS011;75480;52.260;20.916;2024-03-02T05:00:10;33.10;;;18.08;;
85121;SDS011;75480;52.260;20.916;2024-03-02T05:01:43;33.75;;;18.13;;
85121;SDS011;75480;52.260;20.916;2024-03-02T05:03:14;33.80;;;18.45;;
85121;SDS011;75480;52.260;20.916;2024-03-02T05:04:44;33.17;;;18.45;;
85121;SDS011;75480;52.260;20.916;2024-03-02T05:06:15;37.47;;;18.23;;
85121;SDS011;75480;52.260;20.916;2024-03-02T05:07:46;31.63;;;17.10;;
85121;SDS011;75480;52.260;20.916;2024-03-02T05:09:16;38.67;;;18.60;;
85121;SDS011;75480;52.260;20.916;2024-03-02T05:10:47;35.47;;;18.27;;
85121;SDS011;75480;52.260;20.916;2024-03-02T05:12:18;35.97;;;18.42;;
85121;SDS011;75480;52.260;20.916;2024-03-02T05:14:24;31.42;;;17.63;;
85121;SDS011;75480;52.260;20.916;2024-03-02T05:15:56;32.70;;;18.52;;
85121;SDS011;75480;52.260;20.916;2024-03-02T05:17:26;33.40;;;17.67;;
85121;SDS011;75480;52.260;20.916;2024-03-02T05:18:57;31.73;;;17.58;;
85121;SDS011;75480;52.260;20.916;2024-03-02T05:20:27;34.63;;;19.15;;
85121;SDS011;75480;52.260;20.916;2024-03-02T05:21:58;33.90;;;19.10;;
85121;SDS011;75480;52.260;20.916;2024-03-02T05:23:29;35.85;;;19.13;;
85121;SDS011;75480;52.260;20.916;2024-03-02T05:25:00;36.53;;;17.70;;
85121;SDS011;75480;52.260;20.916;2024-03-02T05:26:31;36.50;;;17.67;;
85121;SDS011;75480;52.260;20.916;2024-03-02T05:28:02;39.22;;;19.38;;
85121;SDS011;75480;52.260;20.916;2024-03-02T05:29:32;32.58;;;16.88;;
85121;SDS011;75480;52.260;20.916;2024-03-02T05:31:03;31.33;;;17.67;;
85121;SDS011;75480;52.260;20.916;2024-03-02T05:32:34;32.92;;;17.00;;
85121;SDS011;75480;52.260;20.916;2024-03-02T05:34:04;32.28;;;17.83;;
85121;SDS011;75480;52.260;20.916;2024-03-02T05:35:35;35.88;;;18.20;;
85121;SDS011;75480;52.260;20.916;2024-03-02T05:37:06;32.65;;;17.17;;
85121;SDS011;75480;52.260;20.916;2024-03-02T05:38:37;36.78;;;18.00;;
85121;SDS011;75480;52.260;20.916;2024-03-02T05:40:08;32.00;;;18.88;;
85121;SDS011;75480;52.260;20.916;2024-03-02T05:41:39;32.58;;;18.25;;
85121;SDS011;75480;52.260;20.916;2024-03-02T05:43:09;32.55;;;17.23;;
85121;SDS011;75480;52.260;20.916;2024-03-02T05:44:40;29.25;;;16.98;;
85121;SDS011;75480;52.260;20.916;2024-03-02T05:46:11;35.55;;;17.63;;
85121;SDS011;75480;52.260;20.916;2024-03-02T05:47:42;29.50;;;16.20;;
85121;SDS011;75480;52.260;20.916;2024-03-02T05:49:12;34.90;;;18.20;;
85121;SDS011;75480;52.260;20.916;2024-03-02T05:50:43;32.75;;;17.45;;
85121;SDS011;75480;52.260;20.916;2024-03-02T05:52:14;29.85;;;16.70;;
85121;SDS011;75480;52.260;20.916;2024-03-02T05:53:44;38.20;;;18.27;;
85121;SDS011;75480;52.260;20.916;2024-03-02T05:55:15;31.83;;;17.25;;
85121;SDS011;75480;52.260;20.916;2024-03-02T05:56:45;33.60;;;18.05;;
85121;SDS011;75480;52.260;20.916;2024-03-02T05:58:16;32.58;;;17.17;;
85121;SDS011;75480;52.260;20.916;2024-03-02T06:00:03;31.30;;;15.93;;
85121;SDS011;75480;52.260;20.916;2024-03-02T06:01:47;27.95;;;15.10;;
85121;SDS011;75480;52.260;20.916;2024-03-02T06:03:20;30.40;;;16.38;;
85121;SDS011;75480;52.260;20.916;2024-03-02T06:04:53;32.70;;;16.42;;
85121;SDS011;75480;52.260;20.916;2024-03-02T06:06:26;29.40;;;16.60;;
85121;SDS011;75480;52.260;20.916;2024-03-02T06:07:57;35.72;;;17.33;;
85121;SDS011;75480;52.260;20.916;2024-03-02T06:09:28;31.67;;;16.27;;
85121;SDS011;75480;52.260;20.916;2024-03-02T06:10:58;30.58;;;16.02;;
85121;SDS011;75480;52.260;20.916;2024-03-02T06:12:30;36.50;;;18.30;;
85121;SDS011;75480;52.260;20.916;2024-03-02T06:14:02;31.77;;;16.52;;
85121;SDS011;75480;52.260;20.916;2024-03-02T06:15:32;33.35;;;16.77;;
85121;SDS011;75480;52.260;20.916;2024-03-02T06:17:06;31.73;;;15.68;;
85121;SDS011;75480;52.260;20.916;2024-03-02T06:18:37;30.30;;;15.93;;
85121;SDS011;75480;52.260;20.916;2024-03-02T06:20:08;32.13;;;17.00;;
85121;SDS011;75480;52.260;20.916;2024-03-02T06:21:39;31.25;;;16.05;;
85121;SDS011;75480;52.260;20.916;2024-03-02T06:23:10;29.40;;;16.30;;
85121;SDS011;75480;52.260;20.916;2024-03-02T06:24:41;29.55;;;15.32;;
85121;SDS011;75480;52.260;20.916;2024-03-02T06:26:11;27.20;;;14.40;;
85121;SDS011;75480;52.260;20.916;2024-03-02T06:27:42;30.98;;;16.63;;
85121;SDS011;75480;52.260;20.916;2024-03-02T06:29:13;30.70;;;16.35;;
85121;SDS011;75480;52.260;20.916;2024-03-02T06:30:44;30.30;;;16.40;;
85121;SDS011;75480;52.260;20.916;2024-03-02T06:32:15;35.60;;;16.92;;
85121;SDS011;75480;52.260;20.916;2024-03-02T06:33:46;34.08;;;17.00;;
85121;SDS011;75480;52.260;20.916;2024-03-02T06:35:16;29.77;;;15.65;;
85121;SDS011;75480;52.260;20.916;2024-03-02T06:36:47;28.30;;;15.55;;
85121;SDS011;75480;52.260;20.916;2024-03-02T06:38:18;30.63;;;14.90;;
85121;SDS011;75480;52.260;20.916;2024-03-02T06:39:48;29.77;;;15.50;;
85121;SDS011;75480;52.260;20.916;2024-03-02T06:41:19;31.58;;;15.90;;
85121;SDS011;75480;52.260;20.916;2024-03-02T06:42:50;31.83;;;15.70;;
85121;SDS011;75480;52.260;20.916;2024-03-02T06:44:20;28.50;;;15.70;;
85121;SDS011;75480;52.260;20.916;2024-03-02T06:45:51;31.20;;;15.82;;
85121;SDS011;75480;52.260;20.916;2024-03-02T06:47:22;33.40;;;18.42;;
85121;SDS011;75480;52.260;20.916;2024-03-02T06:48:53;32.80;;;16.73;;
85121;SDS011;75480;52.260;20.916;2024-03-02T06:50:23;33.13;;;15.35;;
85121;SDS011;75480;52.260;20.916;2024-03-02T06:51:54;31.35;;;17.33;;
85121;SDS011;75480;52.260;20.916;2024-03-02T06:53:25;33.72;;;17.60;;
85121;SDS011;75480;52.260;20.916;2024-03-02T06:54:56;33.58;;;17.38;;
85121;SDS011;75480;52.260;20.916;2024-03-02T06:56:27;31.20;;;15.45;;
85121;SDS011;75480;52.260;20.916;2024-03-02T06:57:57;31.52;;;16.48;;
85121;SDS011;75480;52.260;20.916;2024-03-02T06:59:28;33.05;;;17.40;;
85121;SDS011;75480;52.260;20.916;2024-03-02T07:00:59;34.40;;;16.35;;
85121;SDS011;75480;52.260;20.916;2024-03-02T07:02:30;31.00;;;15.93;;
85121;SDS011;75480;52.260;20.916;2024-03-02T07:04:01;26.95;;;14.98;;
85121;SDS011;75480;52.260;20.916;2024-03-02T07:05:32;30.92;;;16.52;;
85121;SDS011;75480;52.260;20.916;2024-03-02T07:07:02;33.38;;;17.33;;
85121;SDS011;75480;52.260;20.916;2024-03-02T07:08:33;30.92;;;16.55;;
85121;SDS011;75480;52.260;20.916;2024-03-02T07:10:04;29.50;;;15.77;;
85121;SDS011;75480;52.260;20.916;2024-03-02T07:11:35;33.42;;;16.88;;
85121;SDS011;75480;52.260;20.916;2024-03-02T07:13:06;28.00;;;16.23;;
85121;SDS011;75480;52.260;20.916;2024-03-02T07:14:36;26.85;;;14.40;;
85121;SDS011;75480;52.260;20.916;2024-03-02T07:16:25;30.30;;;16.17;;
85121;SDS011;75480;52.260;20.916;2024-03-02T07:18:00;32.33;;;15.07;;
85121;SDS011;75480;52.260;20.916;2024-03-02T07:19:30;29.00;;;14.93;;
85121;SDS011;75480;52.260;20.916;2024-03-02T07:21:01;29.80;;;16.13;;
85121;SDS011;75480;52.260;20.916;2024-03-02T07:22:32;35.20;;;15.02;;
85121;SDS011;75480;52.260;20.916;2024-03-02T07:24:04;27.83;;;14.52;;
85121;SDS011;75480;52.260;20.916;2024-03-02T07:25:34;29.08;;;15.40;;
85121;SDS011;75480;52.260;20.916;2024-03-02T07:27:05;28.08;;;14.95;;
85121;SDS011;75480;52.260;20.916;2024-03-02T07:28:36;29.20;;;14.68;;
85121;SDS011;75480;52.260;20.916;2024-03-02T07:30:06;28.70;;;14.88;;
85121;SDS011;75480;52.260;20.916;2024-03-02T07:31:38;30.08;;;14.90;;
85121;SDS011;75480;52.260;20.916;2024-03-02T07:33:08;28.20;;;14.32;;
85121;SDS011;75480;52.260;20.916;2024-03-02T07:34:39;31.02;;;13.30;;
85121;SDS011;75480;52.260;20.916;2024-03-02T07:36:09;27.50;;;15.25;;
85121;SDS011;75480;52.260;20.916;2024-03-02T07:37:43;31.95;;;15.70;;
85121;SDS011;75480;52.260;20.916;2024-03-02T07:39:14;28.52;;;14.40;;
85121;SDS011;75480;52.260;20.916;2024-03-02T07:40:45;26.35;;;14.35;;
85121;SDS011;75480;52.260;20.916;2024-03-02T07:42:16;32.42;;;15.48;;
85121;SDS011;75480;52.260;20.916;2024-03-02T07:43:46;28.00;;;14.10;;
85121;SDS011;75480;52.260;20.916;2024-03-02T07:45:17;29.80;;;15.43;;
85121;SDS011;75480;52.260;20.916;2024-03-02T07:46:48;28.88;;;15.05;;
85121;SDS011;75480;52.260;20.916;2024-03-02T07:48:22;32.85;;;15.25;;
85121;SDS011;75480;52.260;20.916;2024-03-02T07:49:53;29.48;;;15.00;;
85121;SDS011;75480;52.260;20.916;2024-03-02T07:51:23;31.23;;;14.82;;
85121;SDS011;75480;52.260;20.916;2024-03-02T07:52:54;23.30;;;12.98;;
85121;SDS011;75480;52.260;20.916;2024-03-02T07:54:25;27.48;;;15.20;;
85121;SDS011;75480;52.260;20.916;2024-03-02T07:55:55;26.65;;;14.43;;
85121;SDS011;75480;52.260;20.916;2024-03-02T07:57:31;27.95;;;15.40;;
85121;SDS011;75480;52.260;20.916;2024-03-02T07:59:02;29.67;;;14.55;;
85121;SDS011;75480;52.260;20.916;2024-03-02T08:00:34;28.65;;;15.00;;
85121;SDS011;75480;52.260;20.916;2024-03-02T08:02:05;26.27;;;13.20;;
85121;SDS011;75480;52.260;20.916;2024-03-02T08:05:08;26.63;;;13.45;;
85121;SDS011;75480;52.260;20.916;2024-03-02T08:06:38;26.23;;;14.20;;
85121;SDS011;75480;52.260;20.916;2024-03-02T08:08:09;43.10;;;16.02;;
85121;SDS011;75480;52.260;20.916;2024-03-02T08:09:40;35.85;;;15.82;;
85121;SDS011;75480;52.260;20.916;2024-03-02T08:11:10;29.25;;;15.30;;
85121;SDS011;75480;52.260;20.916;2024-03-02T08:12:41;31.00;;;15.52;;
85121;SDS011;75480;52.260;20.916;2024-03-02T08:14:12;30.20;;;14.05;;
85121;SDS011;75480;52.260;20.916;2024-03-02T08:15:42;27.42;;;14.75;;
85121;SDS011;75480;52.260;20.916;2024-03-02T08:17:13;28.42;;;15.13;;
85121;SDS011;75480;52.260;20.916;2024-03-02T08:18:44;28.15;;;13.98;;
85121;SDS011;75480;52.260;20.916;2024-03-02T08:20:14;27.92;;;14.55;;
85121;SDS011;75480;52.260;20.916;2024-03-02T08:21:45;26.13;;;13.68;;
85121;SDS011;75480;52.260;20.916;2024-03-02T08:23:16;30.10;;;15.32;;
85121;SDS011;75480;52.260;20.916;2024-03-02T08:24:47;31.88;;;15.50;;
85121;SDS011;75480;52.260;20.916;2024-03-02T08:26:18;27.67;;;14.52;;
85121;SDS011;75480;52.260;20.916;2024-03-02T08:27:48;30.20;;;14.65;;
85121;SDS011;75480;52.260;20.916;2024-03-02T08:29:19;28.23;;;15.10;;
85121;SDS011;75480;52.260;20.916;2024-03-02T08:30:50;28.60;;;15.30;;
85121;SDS011;75480;52.260;20.916;2024-03-02T08:32:20;28.25;;;14.50;;
85121;SDS011;75480;52.260;20.916;2024-03-02T08:33:51;28.80;;;15.25;;
85121;SDS011;75480;52.260;20.916;2024-03-02T08:35:22;30.50;;;16.85;;
85121;SDS011;75480;52.260;20.916;2024-03-02T08:36:53;32.05;;;14.63;;
85121;SDS011;75480;52.260;20.916;2024-03-02T08:38:23;28.83;;;14.90;;
85121;SDS011;75480;52.260;20.916;2024-03-02T08:39:55;29.00;;;15.52;;
85121;SDS011;75480;52.260;20.916;2024-03-02T08:41:25;28.45;;;14.80;;
85121;SDS011;75480;52.260;20.916;2024-03-02T08:42:56;29.55;;;16.15;;
85121;SDS011;75480;52.260;20.916;2024-03-02T08:44:27;30.80;;;16.50;;
85121;SDS011;75480;52.260;20.916;2024-03-02T08:45:57;28.75;;;15.32;;
85121;SDS011;75480;52.260;20.916;2024-03-02T08:47:28;29.65;;;14.82;;
85121;SDS011;75480;52.260;20.916;2024-03-02T08:48:59;29.48;;;15.48;;
85121;SDS011;75480;52.260;20.916;2024-03-02T08:50:30;29.55;;;15.40;;